sensor_id;sensor_type;location;lat;lon;timestamp;temperature;humidity
23405;DHT22;11875;49.356;2.718;2024-02-28T00:01:25;6.00;99.90
23405;DHT22;11875;49.356;2.718;2024-02-28T00:03:51;5.90;99.90
23405;DHT22;11875;49.356;2.718;2024-02-28T00:06:17;5.90;99.90
23405;DHT22;11875;49.356;2.718;2024-02-28T00:08:44;6.00;99.90
23405;DHT22;11875;49.356;2.718;2024-02-28T00:11:10;6.00;99.90
23405;DHT22;11875;49.356;2.718;2024-02-28T00:13:35;6.00;99.90
23405;DHT22;11875;49.356;2.718;2024-02-28T00:16:01;6.00;99.90
23405;DHT22;11875;49.356;2.718;2024-02-28T00:18:26;6.00;99.90
23405;DHT22;11875;49.356;2.718;2024-02-28T00:20:52;6.00;99.90
23405;DHT22;11875;49.356;2.718;2024-02-28T00:23:19;5.90;99.90
23405;DHT22;11875;49.356;2.718;2024-02-28T00:25:46;5.90;99.90
23405;DHT22;11875;49.356;2.718;2024-02-28T00:28:12;5.80;99.90
23405;DHT22;11875;49.356;2.718;2024-02-28T00:30:37;5.80;99.90
23405;DHT22;11875;49.356;2.718;2024-02-28T00:33:03;5.80;99.90
23405;DHT22;11875;49.356;2.718;2024-02-28T00:35:32;5.90;99.90
23405;DHT22;11875;49.356;2.718;2024-02-28T00:37:59;5.90;99.90
23405;DHT22;11875;49.356;2.718;2024-02-28T00:40:24;5.90;99.90
23405;DHT22;11875;49.356;2.718;2024-02-28T00:42:51;6.00;99.90
23405;DHT22;11875;49.356;2.718;2024-02-28T00:45:16;5.90;99.90
23405;DHT22;11875;49.356;2.718;2024-02-28T00:47:42;5.80;99.90
23405;DHT22;11875;49.356;2.718;2024-02-28T00:50:09;5.80;99.90
23405;DHT22;11875;49.356;2.718;2024-02-28T00:52:35;5.70;99.90
23405;DHT22;11875;49.356;2.718;2024-02-28T00:55:01;5.60;99.90
23405;DHT22;11875;49.356;2.718;2024-02-28T00:57:26;5.60;99.90
23405;DHT22;11875;49.356;2.718;2024-02-28T00:59:52;5.60;99.90
23405;DHT22;11875;49.356;2.718;2024-02-28T01:02:20;5.70;99.90
23405;DHT22;11875;49.356;2.718;2024-02-28T01:04:45;5.70;99.90
23405;DHT22;11875;49.356;2.718;2024-02-28T01:07:11;5.70;99.90
23405;DHT22;11875;49.356;2.718;2024-02-28T01:09:37;5.70;99.90
23405;DHT22;11875;49.356;2.718;2024-02-28T01:12:02;5.70;99.90
23405;DHT22;11875;49.356;2.718;2024-02-28T01:14:28;5.70;99.90
23405;DHT22;11875;49.356;2.718;2024-02-28T01:16:54;5.70;99.90
23405;DHT22;11875;49.356;2.718;2024-02-28T01:19:19;5.70;99.90
23405;DHT22;11875;49.356;2.718;2024-02-28T01:21:45;5.70;99.90
23405;DHT22;11875;49.356;2.718;2024-02-28T01:24:10;5.70;99.90
23405;DHT22;11875;49.356;2.718;2024-02-28T01:26:36;5.70;99.90
23405;DHT22;11875;49.356;2.718;2024-02-28T01:29:01;5.70;99.90
23405;DHT22;11875;49.356;2.718;2024-02-28T01:31:28;5.70;99.90
23405;DHT22;11875;49.356;2.718;2024-02-28T01:33:53;5.70;99.90
23405;DHT22;11875;49.356;2.718;2024-02-28T01:36:21;5.50;99.90
23405;DHT22;11875;49.356;2.718;2024-02-28T01:38:46;5.50;99.90
23405;DHT22;11875;49.356;2.718;2024-02-28T01:41:12;5.50;99.90
23405;DHT22;11875;49.356;2.718;2024-02-28T01:43:37;5.40;99.90
23405;DHT22;11875;49.356;2.718;2024-02-28T01:46:12;5.40;99.90
23405;DHT22;11875;49.356;2.718;2024-02-28T01:48:40;5.40;99.90
23405;DHT22;11875;49.356;2.718;2024-02-28T01:51:05;5.50;99.90
23405;DHT22;11875;49.356;2.718;2024-02-28T01:53:32;5.50;99.90
23405;DHT22;11875;49.356;2.718;2024-02-28T01:55:58;5.40;99.90
23405;DHT22;11875;49.356;2.718;2024-02-28T01:58:24;5.40;99.90
23405;DHT22;11875;49.356;2.718;2024-02-28T02:00:50;5.40;99.90
23405;DHT22;11875;49.356;2.718;2024-02-28T02:03:16;5.20;99.90
23405;DHT22;11875;49.356;2.718;2024-02-28T02:05:41;5.10;99.90
23405;DHT22;11875;49.356;2.718;2024-02-28T02:08:08;5.10;99.90
23405;DHT22;11875;49.356;2.718;2024-02-28T02:10:34;5.10;99.90
23405;DHT22;11875;49.356;2.718;2024-02-28T02:13:06;5.10;99.90
23405;DHT22;11875;49.356;2.718;2024-02-28T02:15:32;5.10;99.90
23405;DHT22;11875;49.356;2.718;2024-02-28T02:17:58;5.00;99.90
23405;DHT22;11875;49.356;2.718;2024-02-28T02:20:26;5.00;99.90
23405;DHT22;11875;49.356;2.718;2024-02-28T02:22:53;5.00;99.90
23405;DHT22;11875;49.356;2.718;2024-02-28T02:25:18;5.00;99.90
23405;DHT22;11875;49.356;2.718;2024-02-28T02:27:44;5.00;99.90
23405;DHT22;11875;49.356;2.718;2024-02-28T02:30:10;5.00;99.90
23405;DHT22;11875;49.356;2.718;2024-02-28T02:32:36;5.00;99.90
23405;DHT22;11875;49.356;2.718;2024-02-28T02:35:01;5.00;99.90
23405;DHT22;11875;49.356;2.718;2024-02-28T02:37:27;5.10;99.90
23405;DHT22;11875;49.356;2.718;2024-02-28T02:39:53;5.10;99.90
23405;DHT22;11875;49.356;2.718;2024-02-28T02:42:19;5.10;99.90
23405;DHT22;11875;49.356;2.718;2024-02-28T02:44:44;5.00;99.90
23405;DHT22;11875;49.356;2.718;2024-02-28T02:47:10;5.00;99.90
23405;DHT22;11875;49.356;2.718;2024-02-28T02:49:36;5.00;99.90
23405;DHT22;11875;49.356;2.718;2024-02-28T02:52:01;5.00;99.90
23405;DHT22;11875;49.356;2.718;2024-02-28T02:54:27;6.20;99.90
23405;DHT22;11875;49.356;2.718;2024-02-28T02:56:52;4.90;99.90
23405;DHT22;11875;49.356;2.718;2024-02-28T02:59:18;4.90;99.90
23405;DHT22;11875;49.356;2.718;2024-02-28T03:01:47;4.80;99.90
23405;DHT22;11875;49.356;2.718;2024-02-28T03:04:13;4.70;99.90
23405;DHT22;11875;49.356;2.718;2024-02-28T03:06:38;4.70;99.90
23405;DHT22;11875;49.356;2.718;2024-02-28T03:09:04;4.70;99.90
23405;DHT22;11875;49.356;2.718;2024-02-28T03:11:29;4.60;99.90
23405;DHT22;11875;49.356;2.718;2024-02-28T03:13:55;4.50;99.90
23405;DHT22;11875;49.356;2.718;2024-02-28T03:16:20;4.50;99.90
23405;DHT22;11875;49.356;2.718;2024-02-28T03:18:46;4.50;99.90
23405;DHT22;11875;49.356;2.718;2024-02-28T03:21:12;4.60;99.90
23405;DHT22;11875;49.356;2.718;2024-02-28T03:23:37;4.50;99.90
23405;DHT22;11875;49.356;2.718;2024-02-28T03:26:04;4.50;99.90
23405;DHT22;11875;49.356;2.718;2024-02-28T03:28:29;4.50;99.90
23405;DHT22;11875;49.356;2.718;2024-02-28T03:30:55;4.50;99.90
23405;DHT22;11875;49.356;2.718;2024-02-28T03:33:20;4.50;99.90
23405;DHT22;11875;49.356;2.718;2024-02-28T03:35:47;4.50;99.90
23405;DHT22;11875;49.356;2.718;2024-02-28T03:38:12;4.60;99.90
23405;DHT22;11875;49.356;2.718;2024-02-28T03:40:38;4.60;99.90
23405;DHT22;11875;49.356;2.718;2024-02-28T03:43:04;4.60;99.90
23405;DHT22;11875;49.356;2.718;2024-02-28T03:45:29;4.60;99.90
23405;DHT22;11875;49.356;2.718;2024-02-28T03:47:55;4.70;99.90
23405;DHT22;11875;49.356;2.718;2024-02-28T03:50:20;4.70;99.90
23405;DHT22;11875;49.356;2.718;2024-02-28T03:52:46;4.80;99.90
23405;DHT22;11875;49.356;2.718;2024-02-28T03:55:11;4.80;99.90
23405;DHT22;11875;49.356;2.718;2024-02-28T03:57:37;4.80;99.90
23405;DHT22;11875;49.356;2.718;2024-02-28T04:00:03;4.70;99.90
23405;DHT22;11875;49.356;2.718;2024-02-28T04:02:30;4.70;99.90
23405;DHT22;11875;49.356;2.718;2024-02-28T04:04:55;4.70;99.90
23405;DHT22;11875;49.356;2.718;2024-02-28T04:07:21;4.80;99.90
23405;DHT22;11875;49.356;2.718;2024-02-28T04:09:46;4.90;99.90
23405;DHT22;11875;49.356;2.718;2024-02-28T04:12:12;4.80;99.90
23405;DHT22;11875;49.356;2.718;2024-02-28T04:14:38;4.80;99.90
23405;DHT22;11875;49.356;2.718;2024-02-28T04:17:04;4.80;99.90
23405;DHT22;11875;49.356;2.718;2024-02-28T04:19:33;4.90;99.90
23405;DHT22;11875;49.356;2.718;2024-02-28T04:22:02;5.00;99.90
23405;DHT22;11875;49.356;2.718;2024-02-28T04:24:28;4.90;99.90
23405;DHT22;11875;49.356;2.718;2024-02-28T04:26:54;4.80;99.90
23405;DHT22;11875;49.356;2.718;2024-02-28T04:29:19;4.90;99.90
23405;DHT22;11875;49.356;2.718;2024-02-28T04:31:45;4.90;99.90
23405;DHT22;11875;49.356;2.718;2024-02-28T04:34:10;5.00;99.90
23405;DHT22;11875;49.356;2.718;2024-02-28T04:36:36;5.00;99.90
23405;DHT22;11875;49.356;2.718;2024-02-28T04:39:02;5.10;99.90
23405;DHT22;11875;49.356;2.718;2024-02-28T04:41:29;5.10;99.90
23405;DHT22;11875;49.356;2.718;2024-02-28T04:43:55;5.10;99.90
23405;DHT22;11875;49.356;2.718;2024-02-28T04:46:20;5.10;99.90
23405;DHT22;11875;49.356;2.718;2024-02-28T04:48:46;5.10;99.90
23405;DHT22;11875;49.356;2.718;2024-02-28T04:51:15;5.20;99.90
23405;DHT22;11875;49.356;2.718;2024-02-28T04:53:41;5.10;99.90
23405;DHT22;11875;49.356;2.718;2024-02-28T04:56:07;5.10;99.90
23405;DHT22;11875;49.356;2.718;2024-02-28T04:58:33;5.10;99.90
23405;DHT22;11875;49.356;2.718;2024-02-28T05:00:59;5.10;99.90
23405;DHT22;11875;49.356;2.718;2024-02-28T05:03:24;5.10;99.90
23405;DHT22;11875;49.356;2.718;2024-02-28T05:05:50;5.00;99.90
23405;DHT22;11875;49.356;2.718;2024-02-28T05:08:19;4.90;99.90
23405;DHT22;11875;49.356;2.718;2024-02-28T05:10:44;4.90;99.90
23405;DHT22;11875;49.356;2.718;2024-02-28T05:13:10;4.80;99.90
23405;DHT22;11875;49.356;2.718;2024-02-28T05:15:36;4.80;99.90
23405;DHT22;11875;49.356;2.718;2024-02-28T05:18:01;4.80;99.90
23405;DHT22;11875;49.356;2.718;2024-02-28T05:20:27;4.70;99.90
23405;DHT22;11875;49.356;2.718;2024-02-28T05:22:52;4.70;99.90
23405;DHT22;11875;49.356;2.718;2024-02-28T05:25:18;4.70;99.90
23405;DHT22;11875;49.356;2.718;2024-02-28T05:27:44;4.60;99.90
23405;DHT22;11875;49.356;2.718;2024-02-28T05:30:10;4.60;99.90
23405;DHT22;11875;49.356;2.718;2024-02-28T05:32:35;4.60;99.90
23405;DHT22;11875;49.356;2.718;2024-02-28T05:35:01;4.50;99.90
23405;DHT22;11875;49.356;2.718;2024-02-28T05:37:27;4.60;99.90
23405;DHT22;11875;49.356;2.718;2024-02-28T05:39:53;4.60;99.90
23405;DHT22;11875;49.356;2.718;2024-02-28T05:42:19;4.60;99.90
23405;DHT22;11875;49.356;2.718;2024-02-28T05:44:50;4.60;99.90
23405;DHT22;11875;49.356;2.718;2024-02-28T05:47:16;4.50;99.90
23405;DHT22;11875;49.356;2.718;2024-02-28T05:49:42;4.40;99.90
23405;DHT22;11875;49.356;2.718;2024-02-28T05:52:07;4.50;99.90
23405;DHT22;11875;49.356;2.718;2024-02-28T05:54:33;4.50;99.90
23405;DHT22;11875;49.356;2.718;2024-02-28T05:57:01;4.60;99.90
23405;DHT22;11875;49.356;2.718;2024-02-28T05:59:27;4.50;99.90
23405;DHT22;11875;49.356;2.718;2024-02-28T06:01:53;4.50;99.90
23405;DHT22;11875;49.356;2.718;2024-02-28T06:04:18;4.60;99.90
23405;DHT22;11875;49.356;2.718;2024-02-28T06:06:44;4.60;99.90
23405;DHT22;11875;49.356;2.718;2024-02-28T06:09:10;4.60;99.90
23405;DHT22;11875;49.356;2.718;2024-02-28T06:11:36;4.60;99.90
23405;DHT22;11875;49.356;2.718;2024-02-28T06:14:01;4.50;99.90
23405;DHT22;11875;49.356;2.718;2024-02-28T06:16:29;4.60;99.90
23405;DHT22;11875;49.356;2.718;2024-02-28T06:18:55;4.70;99.90
23405;DHT22;11875;49.356;2.718;2024-02-28T06:21:23;4.70;99.90
23405;DHT22;11875;49.356;2.718;2024-02-28T06:23:49;4.80;99.90
23405;DHT22;11875;49.356;2.718;2024-02-28T06:26:14;4.70;99.90
23405;DHT22;11875;49.356;2.718;2024-02-28T06:28:43;4.80;99.90
23405;DHT22;11875;49.356;2.718;2024-02-28T06:31:17;4.80;99.90
23405;DHT22;11875;49.356;2.718;2024-02-28T06:33:44;4.90;99.90
23405;DHT22;11875;49.356;2.718;2024-02-28T06:36:09;4.90;99.90
23405;DHT22;11875;49.356;2.718;2024-02-28T06:38:35;4.90;99.90
23405;DHT22;11875;49.356;2.718;2024-02-28T06:41:03;5.00;99.90
23405;DHT22;11875;49.356;2.718;2024-02-28T06:43:29;5.00;99.90
23405;DHT22;11875;49.356;2.718;2024-02-28T06:45:55;5.00;99.90
23405;DHT22;11875;49.356;2.718;2024-02-28T06:48:20;4.90;99.90
23405;DHT22;11875;49.356;2.718;2024-02-28T06:50:46;4.90;99.90
23405;DHT22;11875;49.356;2.718;2024-02-28T06:53:11;6.10;99.90
23405;DHT22;11875;49.356;2.718;2024-02-28T06:55:37;4.90;99.90
23405;DHT22;11875;49.356;2.718;2024-02-28T06:58:03;5.10;99.90
23405;DHT22;11875;49.356;2.718;2024-02-28T07:00:28;5.10;99.90
23405;DHT22;11875;49.356;2.718;2024-02-28T07:02:54;5.20;99.90
23405;DHT22;11875;49.356;2.718;2024-02-28T07:05:19;5.20;99.90
23405;DHT22;11875;49.356;2.718;2024-02-28T07:07:45;5.20;99.90
23405;DHT22;11875;49.356;2.718;2024-02-28T07:10:11;5.30;99.90
23405;DHT22;11875;49.356;2.718;2024-02-28T07:12:36;5.30;99.90
23405;DHT22;11875;49.356;2.718;2024-02-28T07:15:02;6.10;99.90
23405;DHT22;11875;49.356;2.718;2024-02-28T07:17:28;5.30;99.90
23405;DHT22;11875;49.356;2.718;2024-02-28T07:19:53;5.30;99.90
23405;DHT22;11875;49.356;2.718;2024-02-28T07:22:19;5.30;99.90
23405;DHT22;11875;49.356;2.718;2024-02-28T07:24:46;5.30;99.90
23405;DHT22;11875;49.356;2.718;2024-02-28T07:27:12;5.40;99.90
23405;DHT22;11875;49.356;2.718;2024-02-28T07:29:37;5.50;99.90
23405;DHT22;11875;49.356;2.718;2024-02-28T07:32:03;5.50;99.90
23405;DHT22;11875;49.356;2.718;2024-02-28T07:34:29;5.50;99.90
23405;DHT22;11875;49.356;2.718;2024-02-28T07:36:55;5.60;99.90
23405;DHT22;11875;49.356;2.718;2024-02-28T07:39:20;5.60;99.90
23405;DHT22;11875;49.356;2.718;2024-02-28T07:41:46;5.70;99.90
23405;DHT22;11875;49.356;2.718;2024-02-28T07:44:12;5.70;99.90
23405;DHT22;11875;49.356;2.718;2024-02-28T07:46:37;5.70;99.90
23405;DHT22;11875;49.356;2.718;2024-02-28T07:49:03;5.70;99.90
23405;DHT22;11875;49.356;2.718;2024-02-28T07:51:29;5.70;99.90
23405;DHT22;11875;49.356;2.718;2024-02-28T07:53:54;5.70;99.90
23405;DHT22;11875;49.356;2.718;2024-02-28T07:56:21;5.80;99.90
23405;DHT22;11875;49.356;2.718;2024-02-28T07:58:47;5.90;99.90
23405;DHT22;11875;49.356;2.718;2024-02-28T08:01:12;5.90;99.90
23405;DHT22;11875;49.356;2.718;2024-02-28T08:03:38;5.80;99.90
23405;DHT22;11875;49.356;2.718;2024-02-28T08:06:04;5.90;99.90
23405;DHT22;11875;49.356;2.718;2024-02-28T08:08:30;6.00;99.90
23405;DHT22;11875;49.356;2.718;2024-02-28T08:10:55;6.00;99.90
23405;DHT22;11875;49.356;2.718;2024-02-28T08:13:21;6.10;99.90
23405;DHT22;11875;49.356;2.718;2024-02-28T08:15:46;6.20;99.90
23405;DHT22;11875;49.356;2.718;2024-02-28T08:18:12;6.20;99.90
23405;DHT22;11875;49.356;2.718;2024-02-28T08:20:38;6.20;99.90
23405;DHT22;11875;49.356;2.718;2024-02-28T08:23:05;6.10;99.90
23405;DHT22;11875;49.356;2.718;2024-02-28T08:25:30;6.20;99.90
23405;DHT22;11875;49.356;2.718;2024-02-28T08:27:56;6.30;99.90
23405;DHT22;11875;49.356;2.718;2024-02-28T08:30:22;6.30;99.90
23405;DHT22;11875;49.356;2.718;2024-02-28T08:32:48;6.30;99.90
23405;DHT22;11875;49.356;2.718;2024-02-28T08:35:13;6.30;99.90
23405;DHT22;11875;49.356;2.718;2024-02-28T08:37:39;6.30;99.90
23405;DHT22;11875;49.356;2.718;2024-02-28T08:40:06;6.30;99.90
23405;DHT22;11875;49.356;2.718;2024-02-28T08:42:32;6.60;99.90
23405;DHT22;11875;49.356;2.718;2024-02-28T08:44:57;6.70;99.90
23405;DHT22;11875;49.356;2.718;2024-02-28T08:47:26;6.60;99.90
23405;DHT22;11875;49.356;2.718;2024-02-28T08:49:55;6.50;99.90
23405;DHT22;11875;49.356;2.718;2024-02-28T08:52:21;6.50;99.90
23405;DHT22;11875;49.356;2.718;2024-02-28T08:54:47;6.60;99.90
23405;DHT22;11875;49.356;2.718;2024-02-28T08:57:13;6.60;99.90
23405;DHT22;11875;49.356;2.718;2024-02-28T08:59:39;6.80;99.90
23405;DHT22;11875;49.356;2.718;2024-02-28T09:02:06;7.20;99.90
23405;DHT22;11875;49.356;2.718;2024-02-28T09:04:31;7.30;99.90
23405;DHT22;11875;49.356;2.718;2024-02-28T09:06:57;7.70;99.90
23405;DHT22;11875;49.356;2.718;2024-02-28T09:09:23;7.60;99.90
23405;DHT22;11875;49.356;2.718;2024-02-28T09:11:48;7.70;99.90
23405;DHT22;11875;49.356;2.718;2024-02-28T09:14:14;7.90;99.90
23405;DHT22;11875;49.356;2.718;2024-02-28T09:16:39;7.90;99.90
23405;DHT22;11875;49.356;2.718;2024-02-28T09:19:05;8.10;99.90
23405;DHT22;11875;49.356;2.718;2024-02-28T09:21:31;8.10;99.90
23405;DHT22;11875;49.356;2.718;2024-02-28T09:23:57;8.10;99.90
23405;DHT22;11875;49.356;2.718;2024-02-28T09:26:23;8.20;99.90
23405;DHT22;11875;49.356;2.718;2024-02-28T09:28:48;8.10;99.90
23405;DHT22;11875;49.356;2.718;2024-02-28T09:31:14;9.70;99.90
23405;DHT22;11875;49.356;2.718;2024-02-28T09:33:41;8.40;99.90
23405;DHT22;11875;49.356;2.718;2024-02-28T09:36:07;8.40;99.90
23405;DHT22;11875;49.356;2.718;2024-02-28T09:38:32;8.50;99.90
23405;DHT22;11875;49.356;2.718;2024-02-28T09:41:00;8.60;99.90
23405;DHT22;11875;49.356;2.718;2024-02-28T09:43:31;8.60;99.90
23405;DHT22;11875;49.356;2.718;2024-02-28T09:46:04;8.80;99.90
23405;DHT22;11875;49.356;2.718;2024-02-28T09:48:31;8.80;99.90
23405;DHT22;11875;49.356;2.718;2024-02-28T09:50:57;8.90;99.90
23405;DHT22;11875;49.356;2.718;2024-02-28T09:53:23;9.00;99.90
23405;DHT22;11875;49.356;2.718;2024-02-28T09:55:50;9.10;99.90
23405;DHT22;11875;49.356;2.718;2024-02-28T09:58:17;9.20;99.90
23405;DHT22;11875;49.356;2.718;2024-02-28T10:00:44;9.30;99.90
23405;DHT22;11875;49.356;2.718;2024-02-28T10:03:14;9.40;99.90
23405;DHT22;11875;49.356;2.718;2024-02-28T10:05:42;9.60;99.90
23405;DHT22;11875;49.356;2.718;2024-02-28T10:08:08;9.70;99.90
23405;DHT22;11875;49.356;2.718;2024-02-28T10:10:37;9.90;99.90
23405;DHT22;11875;49.356;2.718;2024-02-28T10:13:03;9.90;99.90
23405;DHT22;11875;49.356;2.718;2024-02-28T10:15:30;10.00;99.90
23405;DHT22;11875;49.356;2.718;2024-02-28T10:17:56;10.20;99.90
23405;DHT22;11875;49.356;2.718;2024-02-28T10:20:21;10.10;99.90
23405;DHT22;11875;49.356;2.718;2024-02-28T10:22:47;10.10;99.90
23405;DHT22;11875;49.356;2.718;2024-02-28T10:25:13;10.10;99.90
23405;DHT22;11875;49.356;2.718;2024-02-28T10:27:40;10.20;99.90
23405;DHT22;11875;49.356;2.718;2024-02-28T10:30:07;10.20;99.90
23405;DHT22;11875;49.356;2.718;2024-02-28T10:32:33;10.20;99.90
23405;DHT22;11875;49.356;2.718;2024-02-28T10:35:04;10.20;99.90
23405;DHT22;11875;49.356;2.718;2024-02-28T10:37:32;10.30;99.90
23405;DHT22;11875;49.356;2.718;2024-02-28T10:39:58;10.30;99.90
23405;DHT22;11875;49.356;2.718;2024-02-28T10:42:25;10.40;99.90
23405;DHT22;11875;49.356;2.718;2024-02-28T10:44:52;10.50;99.90
23405;DHT22;11875;49.356;2.718;2024-02-28T10:47:20;10.50;99.90
23405;DHT22;11875;49.356;2.718;2024-02-28T10:49:46;10.60;99.90
23405;DHT22;11875;49.356;2.718;2024-02-28T10:52:12;10.50;99.90
23405;DHT22;11875;49.356;2.718;2024-02-28T10:54:40;10.50;99.90
23405;DHT22;11875;49.356;2.718;2024-02-28T10:57:12;10.60;99.90
23405;DHT22;11875;49.356;2.718;2024-02-28T10:59:37;10.60;99.90
23405;DHT22;11875;49.356;2.718;2024-02-28T11:02:05;10.50;99.90
23405;DHT22;11875;49.356;2.718;2024-02-28T11:04:31;10.50;99.90
23405;DHT22;11875;49.356;2.718;2024-02-28T11:06:57;10.40;99.90
23405;DHT22;11875;49.356;2.718;2024-02-28T11:09:28;10.40;99.90
23405;DHT22;11875;49.356;2.718;2024-02-28T11:11:55;10.30;99.90
23405;DHT22;11875;49.356;2.718;2024-02-28T11:14:21;11.30;99.90
23405;DHT22;11875;49.356;2.718;2024-02-28T11:16:48;10.40;99.90
23405;DHT22;11875;49.356;2.718;2024-02-28T11:19:20;10.40;99.90
23405;DHT22;11875;49.356;2.718;2024-02-28T11:21:55;10.40;99.90
23405;DHT22;11875;49.356;2.718;2024-02-28T11:24:24;10.40;99.90
23405;DHT22;11875;49.356;2.718;2024-02-28T11:26:52;10.50;99.90
23405;DHT22;11875;49.356;2.718;2024-02-28T11:29:25;10.70;99.90
23405;DHT22;11875;49.356;2.718;2024-02-28T11:31:51;10.80;99.90
23405;DHT22;11875;49.356;2.718;2024-02-28T11:34:17;10.80;99.90
23405;DHT22;11875;49.356;2.718;2024-02-28T11:36:42;10.90;99.90
23405;DHT22;11875;49.356;2.718;2024-02-28T11:39:08;10.80;99.90
23405;DHT22;11875;49.356;2.718;2024-02-28T11:41:34;10.70;99.90
23405;DHT22;11875;49.356;2.718;2024-02-28T11:43:59;10.70;99.90
23405;DHT22;11875;49.356;2.718;2024-02-28T11:46:26;10.70;99.90
23405;DHT22;11875;49.356;2.718;2024-02-28T11:48:53;10.60;99.90
23405;DHT22;11875;49.356;2.718;2024-02-28T11:51:19;10.50;99.90
23405;DHT22;11875;49.356;2.718;2024-02-28T11:53:45;10.40;99.90
23405;DHT22;11875;49.356;2.718;2024-02-28T11:56:11;10.40;99.90
23405;DHT22;11875;49.356;2.718;2024-02-28T11:58:36;10.40;99.90
23405;DHT22;11875;49.356;2.718;2024-02-28T12:01:02;10.40;99.90
23405;DHT22;11875;49.356;2.718;2024-02-28T12:03:28;10.30;99.90
23405;DHT22;11875;49.356;2.718;2024-02-28T12:05:55;10.30;99.90
23405;DHT22;11875;49.356;2.718;2024-02-28T12:08:21;10.80;99.90
23405;DHT22;11875;49.356;2.718;2024-02-28T12:10:47;10.30;99.90
23405;DHT22;11875;49.356;2.718;2024-02-28T12:13:20;10.60;99.90
23405;DHT22;11875;49.356;2.718;2024-02-28T12:15:47;10.40;99.90
23405;DHT22;11875;49.356;2.718;2024-02-28T12:18:15;10.50;99.90
23405;DHT22;11875;49.356;2.718;2024-02-28T12:20:40;10.70;99.90
23405;DHT22;11875;49.356;2.718;2024-02-28T12:23:06;10.90;99.90
23405;DHT22;11875;49.356;2.718;2024-02-28T12:25:33;11.20;99.90
23405;DHT22;11875;49.356;2.718;2024-02-28T12:28:00;11.30;99.90
23405;DHT22;11875;49.356;2.718;2024-02-28T12:30:26;11.30;99.90
23405;DHT22;11875;49.356;2.718;2024-02-28T12:32:52;11.30;99.90
23405;DHT22;11875;49.356;2.718;2024-02-28T12:35:17;11.30;99.90
23405;DHT22;11875;49.356;2.718;2024-02-28T12:37:43;11.40;99.90
23405;DHT22;11875;49.356;2.718;2024-02-28T12:40:09;11.40;99.90
23405;DHT22;11875;49.356;2.718;2024-02-28T12:42:34;11.40;99.90
23405;DHT22;11875;49.356;2.718;2024-02-28T12:45:02;12.00;99.90
23405;DHT22;11875;49.356;2.718;2024-02-28T12:47:27;11.40;99.90
23405;DHT22;11875;49.356;2.718;2024-02-28T12:49:56;11.40;99.90
23405;DHT22;11875;49.356;2.718;2024-02-28T12:52:21;11.40;99.90
23405;DHT22;11875;49.356;2.718;2024-02-28T12:54:47;11.40;99.90
23405;DHT22;11875;49.356;2.718;2024-02-28T12:57:12;11.50;99.90
23405;DHT22;11875;49.356;2.718;2024-02-28T12:59:42;11.50;99.90
23405;DHT22;11875;49.356;2.718;2024-02-28T13:02:09;11.60;99.90
23405;DHT22;11875;49.356;2.718;2024-02-28T13:04:35;11.50;99.90
23405;DHT22;11875;49.356;2.718;2024-02-28T13:07:01;11.50;99.90
23405;DHT22;11875;49.356;2.718;2024-02-28T13:09:26;11.40;99.90
23405;DHT22;11875;49.356;2.718;2024-02-28T13:11:52;11.50;99.90
23405;DHT22;11875;49.356;2.718;2024-02-28T13:14:18;11.50;99.90
23405;DHT22;11875;49.356;2.718;2024-02-28T13:16:44;11.60;99.90
23405;DHT22;11875;49.356;2.718;2024-02-28T13:19:10;11.50;99.90
23405;DHT22;11875;49.356;2.718;2024-02-28T13:21:35;11.60;99.90
23405;DHT22;11875;49.356;2.718;2024-02-28T13:24:02;11.60;99.90
23405;DHT22;11875;49.356;2.718;2024-02-28T13:26:28;11.60;99.90
23405;DHT22;11875;49.356;2.718;2024-02-28T13:28:54;11.70;99.90
23405;DHT22;11875;49.356;2.718;2024-02-28T13:31:20;11.60;99.90
23405;DHT22;11875;49.356;2.718;2024-02-28T13:33:46;11.60;99.90
23405;DHT22;11875;49.356;2.718;2024-02-28T13:36:13;11.50;99.90
23405;DHT22;11875;49.356;2.718;2024-02-28T13:38:39;11.40;99.90
23405;DHT22;11875;49.356;2.718;2024-02-28T13:41:05;11.30;99.90
23405;DHT22;11875;49.356;2.718;2024-02-28T13:43:31;11.40;99.90
23405;DHT22;11875;49.356;2.718;2024-02-28T13:45:56;11.50;99.90
23405;DHT22;11875;49.356;2.718;2024-02-28T13:48:25;11.50;99.90
23405;DHT22;11875;49.356;2.718;2024-02-28T13:50:52;11.50;99.90
23405;DHT22;11875;49.356;2.718;2024-02-28T13:53:18;11.50;99.90
23405;DHT22;11875;49.356;2.718;2024-02-28T13:55:45;11.60;99.90
23405;DHT22;11875;49.356;2.718;2024-02-28T13:58:11;11.80;99.90
23405;DHT22;11875;49.356;2.718;2024-02-28T14:00:38;11.80;99.90
23405;DHT22;11875;49.356;2.718;2024-02-28T14:03:05;11.80;99.90
23405;DHT22;11875;49.356;2.718;2024-02-28T14:05:31;11.80;99.90
23405;DHT22;11875;49.356;2.718;2024-02-28T14:07:57;11.80;99.90
23405;DHT22;11875;49.356;2.718;2024-02-28T14:10:24;11.90;99.90
23405;DHT22;11875;49.356;2.718;2024-02-28T14:12:50;11.90;99.90
23405;DHT22;11875;49.356;2.718;2024-02-28T14:15:21;11.90;99.90
23405;DHT22;11875;49.356;2.718;2024-02-28T14:17:48;11.90;99.90
23405;DHT22;11875;49.356;2.718;2024-02-28T14:20:14;11.80;99.90
23405;DHT22;11875;49.356;2.718;2024-02-28T14:22:40;11.60;99.90
23405;DHT22;11875;49.356;2.718;2024-02-28T14:25:17;11.50;99.90
23405;DHT22;11875;49.356;2.718;2024-02-28T14:27:47;11.50;99.90
23405;DHT22;11875;49.356;2.718;2024-02-28T14:30:13;11.30;99.90
23405;DHT22;11875;49.356;2.718;2024-02-28T14:32:40;11.30;99.90
23405;DHT22;11875;49.356;2.718;2024-02-28T14:35:07;11.40;99.90
23405;DHT22;11875;49.356;2.718;2024-02-28T14:37:34;11.50;99.90
23405;DHT22;11875;49.356;2.718;2024-02-28T14:40:01;11.60;99.90
23405;DHT22;11875;49.356;2.718;2024-02-28T14:42:27;11.70;99.90
23405;DHT22;11875;49.356;2.718;2024-02-28T14:44:53;11.90;99.90
23405;DHT22;11875;49.356;2.718;2024-02-28T14:47:21;12.10;99.90
23405;DHT22;11875;49.356;2.718;2024-02-28T14:49:47;12.10;99.90
23405;DHT22;11875;49.356;2.718;2024-02-28T14:52:13;12.00;99.90
23405;DHT22;11875;49.356;2.718;2024-02-28T14:54:39;12.00;99.90
23405;DHT22;11875;49.356;2.718;2024-02-28T14:57:05;12.10;99.90
23405;DHT22;11875;49.356;2.718;2024-02-28T14:59:31;12.00;99.90
23405;DHT22;11875;49.356;2.718;2024-02-28T15:01:58;11.90;99.90
23405;DHT22;11875;49.356;2.718;2024-02-28T15:04:24;11.90;99.90
23405;DHT22;11875;49.356;2.718;2024-02-28T15:06:50;11.80;99.90
23405;DHT22;11875;49.356;2.718;2024-02-28T15:09:18;11.90;99.90
23405;DHT22;11875;49.356;2.718;2024-02-28T15:11:49;11.90;99.90
23405;DHT22;11875;49.356;2.718;2024-02-28T15:14:15;11.90;99.90
23405;DHT22;11875;49.356;2.718;2024-02-28T15:16:41;11.90;99.90
23405;DHT22;11875;49.356;2.718;2024-02-28T15:19:07;11.80;99.90
23405;DHT22;11875;49.356;2.718;2024-02-28T15:21:32;12.00;99.90
23405;DHT22;11875;49.356;2.718;2024-02-28T15:23:58;12.00;99.90
23405;DHT22;11875;49.356;2.718;2024-02-28T15:26:24;12.00;99.90
23405;DHT22;11875;49.356;2.718;2024-02-28T15:28:49;12.00;99.90
23405;DHT22;11875;49.356;2.718;2024-02-28T15:31:15;12.00;99.90
23405;DHT22;11875;49.356;2.718;2024-02-28T15:33:41;11.90;99.90